createdAt,value
2022-12-29T00:01:45.384Z,100226.57
2022-12-29T00:04:17.114Z,100229.10
2022-12-29T00:06:45.323Z,100224.30
2022-12-29T00:09:14.105Z,100225.86
2022-12-29T00:11:42.071Z,100215.69
2022-12-29T00:14:29.890Z,100212.42
2022-12-29T00:16:58.252Z,100210.36
2022-12-29T00:19:44.841Z,100210.85
2022-12-29T00:22:33.265Z,100209.80
2022-12-29T00:25:02.310Z,100212.80
2022-12-29T00:27:49.788Z,100215.00
2022-12-29T00:30:42.477Z,100221.52
2022-12-29T00:33:32.836Z,100220.23
2022-12-29T00:36:05.851Z,100218.42
2022-12-29T00:38:56.074Z,100219.65
2022-12-29T00:41:42.547Z,100233.00
2022-12-29T00:44:11.706Z,100236.33
2022-12-29T00:46:41.574Z,100225.89
2022-12-29T00:49:30.589Z,100223.36
2022-12-29T00:52:07.410Z,100222.23
2022-12-29T00:54:39.767Z,100225.40
2022-12-29T00:57:09.874Z,100219.88
2022-12-29T00:59:38.936Z,100214.64
2022-12-29T01:02:07.505Z,100215.48
2022-12-29T01:04:35.623Z,100219.80
2022-12-29T01:07:03.745Z,100210.91
2022-12-29T01:09:50.654Z,100207.95
2022-12-29T01:12:38.272Z,100207.05
2022-12-29T01:15:06.744Z,100201.04
2022-12-29T01:17:35.600Z,100201.23
2022-12-29T01:20:04.395Z,100196.96
2022-12-29T01:22:32.026Z,100195.65
2022-12-29T01:24:59.613Z,100192.96
2022-12-29T01:27:27.422Z,100185.73
2022-12-29T01:29:55.145Z,100183.91
2022-12-29T01:32:23.409Z,100178.35
2022-12-29T01:34:51.049Z,100177.60
2022-12-29T01:37:18.803Z,100174.73
2022-12-29T01:39:46.434Z,100169.70
2022-12-29T01:42:20.083Z,100173.38
2022-12-29T01:44:50.107Z,100171.77
2022-12-29T01:47:29.277Z,100172.34
2022-12-29T01:50:02.277Z,100165.70
2022-12-29T01:52:33.179Z,100160.63
2022-12-29T01:55:04.451Z,100154.75
2022-12-29T01:57:39.093Z,100145.55
2022-12-29T02:00:11.051Z,100145.48
2022-12-29T02:02:46.394Z,100142.23
2022-12-29T02:05:33.096Z,100136.73
2022-12-29T02:08:02.257Z,100131.92
2022-12-29T02:10:34.032Z,100136.48
2022-12-29T02:13:01.712Z,100144.21
2022-12-29T02:16:14.255Z,100148.61
2022-12-29T02:18:51.078Z,100146.41
2022-12-29T02:21:27.739Z,100152.82
2022-12-29T02:24:22.705Z,100150.05
2022-12-29T02:27:21.389Z,100148.54
2022-12-29T02:30:35.741Z,100148.41
2022-12-29T02:33:25.383Z,100147.88
2022-12-29T02:36:34.031Z,100148.01
2022-12-29T02:39:22.121Z,100148.79
2022-12-29T02:42:14.248Z,100159.91
2022-12-29T02:44:47.602Z,100155.34
2022-12-29T02:47:31.440Z,100156.55
2022-12-29T02:50:07.041Z,100157.91
2022-12-29T02:52:40.320Z,100155.94
2022-12-29T02:55:08.085Z,100151.15
2022-12-29T02:57:36.157Z,100153.32
2022-12-29T03:00:12.122Z,100155.78
2022-12-29T03:03:02.297Z,100152.98
2022-12-29T03:05:52.388Z,100160.63
2022-12-29T03:08:44.047Z,100154.88
2022-12-29T03:11:35.174Z,100149.73
2022-12-29T03:14:51.083Z,100147.00
2022-12-29T03:17:36.106Z,100142.14
2022-12-29T03:20:15.727Z,100139.42
2022-12-29T03:22:48.528Z,100136.40
2022-12-29T03:25:32.457Z,100127.19
2022-12-29T03:28:09.560Z,100123.59
2022-12-29T03:30:42.521Z,100111.23
2022-12-29T03:33:16.173Z,100093.46
2022-12-29T03:35:47.439Z,100087.77
2022-12-29T03:38:26.931Z,100103.17
2022-12-29T03:40:59.190Z,100106.66
2022-12-29T03:43:28.578Z,100108.72
2022-12-29T03:45:56.489Z,100103.75
2022-12-29T03:48:24.129Z,100087.58
2022-12-29T03:50:52.566Z,100082.02
2022-12-29T03:53:20.322Z,100081.98
2022-12-29T03:55:48.386Z,100074.23
2022-12-29T03:58:17.115Z,100064.98
2022-12-29T04:01:09.001Z,100063.56
2022-12-29T04:03:38.072Z,100055.59
2022-12-29T04:06:06.392Z,100061.37
2022-12-29T04:08:41.867Z,100070.83
2022-12-29T04:11:09.517Z,100064.90
2022-12-29T04:13:37.188Z,100081.63
2022-12-29T04:16:05.408Z,100068.46
2022-12-29T04:18:33.876Z,100071.09
2022-12-29T04:21:03.613Z,100072.87
2022-12-29T04:23:35.697Z,100066.66
2022-12-29T04:26:07.997Z,100068.85
2022-12-29T04:28:39.646Z,100071.06
2022-12-29T04:31:46.403Z,100058.94
2022-12-29T04:34:14.835Z,100057.64
2022-12-29T04:36:42.462Z,100063.65
2022-12-29T04:39:10.144Z,100057.40
2022-12-29T04:41:39.876Z,100045.50
2022-12-29T04:44:09.774Z,100043.98
2022-12-29T04:46:56.077Z,100048.09
2022-12-29T04:49:46.841Z,100042.92
2022-12-29T04:52:47.040Z,100046.34
2022-12-29T04:55:15.923Z,100035.64
2022-12-29T04:57:43.652Z,100027.21
2022-12-29T05:00:15.376Z,100026.66
2022-12-29T05:02:43.317Z,100026.96
2022-12-29T05:05:11.311Z,100021.41
2022-12-29T05:07:42.877Z,100024.23
2022-12-29T05:10:11.951Z,100022.73
2022-12-29T05:12:39.677Z,100020.87
2022-12-29T05:15:09.899Z,100010.73
2022-12-29T05:17:38.130Z,100011.41
2022-12-29T05:20:08.101Z,100013.25
2022-12-29T05:22:36.531Z,100009.73
2022-12-29T05:25:05.958Z,100004.64
2022-12-29T05:27:40.424Z,100002.00
2022-12-29T05:30:19.902Z,99991.79
2022-12-29T05:32:47.679Z,99989.61
2022-12-29T05:35:15.448Z,99981.41
2022-12-29T05:37:43.990Z,99974.20
2022-12-29T05:40:12.376Z,99972.92
2022-12-29T05:42:41.016Z,99969.19
2022-12-29T05:45:34.646Z,99978.21
2022-12-29T05:48:31.630Z,99975.20
2022-12-29T05:51:28.320Z,99980.52
2022-12-29T05:53:56.151Z,99983.40
2022-12-29T05:56:24.525Z,99977.96
2022-12-29T05:58:57.347Z,99982.34
2022-12-29T06:01:25.684Z,99980.05
2022-12-29T06:03:54.511Z,99973.29
2022-12-29T06:06:22.313Z,99972.80
2022-12-29T06:08:50.185Z,99968.96
2022-12-29T06:11:18.474Z,99977.54
2022-12-29T06:13:51.441Z,99972.16
2022-12-29T06:16:19.197Z,99978.02
2022-12-29T06:18:46.930Z,99971.98
2022-12-29T06:21:14.695Z,99973.96
2022-12-29T06:23:42.458Z,99975.54
2022-12-29T06:26:10.159Z,99979.60
2022-12-29T06:28:38.800Z,99983.77
2022-12-29T06:31:10.406Z,99989.41
2022-12-29T06:33:39.008Z,99994.86
2022-12-29T06:36:07.301Z,99993.11
2022-12-29T06:38:36.311Z,99983.55
2022-12-29T06:41:04.119Z,99980.60
2022-12-29T06:43:47.034Z,99987.00
2022-12-29T06:46:30.336Z,99993.29
2022-12-29T06:48:57.934Z,99994.05
2022-12-29T06:51:25.571Z,99999.80
2022-12-29T06:53:53.325Z,99998.95
2022-12-29T06:56:20.980Z,99988.21
2022-12-29T06:58:48.622Z,99985.09
2022-12-29T07:01:16.455Z,99983.31
2022-12-29T07:03:44.417Z,99982.27
2022-12-29T07:06:12.020Z,99977.01
2022-12-29T07:08:39.789Z,99986.30
2022-12-29T07:11:07.608Z,99989.73
2022-12-29T07:13:35.597Z,99982.63
2022-12-29T07:16:10.380Z,99979.21
2022-12-29T07:18:38.361Z,99977.38
2022-12-29T07:21:06.500Z,99976.98
2022-12-29T07:23:34.242Z,99978.27
2022-12-29T07:26:03.945Z,99973.86
2022-12-29T07:28:33.174Z,99975.91
2022-12-29T07:31:00.955Z,99970.59
2022-12-29T07:33:33.044Z,99977.55
2022-12-29T07:36:01.049Z,99979.23
2022-12-29T07:38:28.676Z,99975.89
2022-12-29T07:40:59.661Z,99975.45
2022-12-29T07:43:27.417Z,99978.68
2022-12-29T07:46:56.656Z,99987.86
2022-12-29T07:49:08.555Z,99985.39
2022-12-29T07:51:36.208Z,99985.41
2022-12-29T07:54:04.057Z,99985.61
2022-12-29T07:56:31.674Z,99977.91
2022-12-29T07:58:59.380Z,99976.51
2022-12-29T08:01:27.108Z,99964.40
2022-12-29T08:03:57.588Z,99962.02
2022-12-29T08:06:25.614Z,99959.40
2022-12-29T08:08:53.255Z,99954.02
2022-12-29T08:11:21.061Z,99960.66
2022-12-29T08:13:48.688Z,99958.76
2022-12-29T08:16:16.720Z,99955.77
2022-12-29T08:18:44.647Z,99959.39
2022-12-29T08:21:12.495Z,99955.27
2022-12-29T08:23:40.237Z,99956.28
2022-12-29T08:26:07.843Z,99952.27
2022-12-29T08:28:35.661Z,99950.32
2022-12-29T08:31:04.105Z,99952.86
2022-12-29T08:33:32.302Z,99957.59
2022-12-29T08:36:01.483Z,99959.68
2022-12-29T08:38:30.194Z,99967.54
2022-12-29T08:40:58.838Z,99970.55
2022-12-29T08:43:26.486Z,99971.13
2022-12-29T08:45:54.336Z,99970.17
2022-12-29T08:48:23.133Z,99967.10
2022-12-29T08:50:51.516Z,99972.48
2022-12-29T08:53:19.957Z,99971.89
2022-12-29T08:55:58.066Z,99969.83
2022-12-29T08:58:30.047Z,99968.43
2022-12-29T09:00:58.527Z,99973.07
2022-12-29T09:03:54.925Z,99967.04
2022-12-29T09:06:17.085Z,99965.99
2022-12-29T09:08:45.563Z,99956.36
2022-12-29T09:11:19.665Z,99962.17
2022-12-29T09:13:48.175Z,99957.54
2022-12-29T09:16:16.815Z,99959.17
2022-12-29T09:18:45.775Z,99952.04
2022-12-29T09:21:13.995Z,99952.70
2022-12-29T09:23:42.301Z,99953.77
2022-12-29T09:26:10.224Z,99960.39
2022-12-29T09:28:38.006Z,99955.19
2022-12-29T09:31:05.885Z,99952.77
2022-12-29T09:33:36.351Z,99955.27
2022-12-29T09:36:04.639Z,99951.59
2022-12-29T09:38:32.387Z,99951.48
2022-12-29T09:41:27.553Z,99955.14
2022-12-29T09:44:14.203Z,99947.21
2022-12-29T09:46:46.586Z,99945.82
2022-12-29T09:49:26.721Z,99937.52
2022-12-29T09:52:04.207Z,99927.67
2022-12-29T09:54:55.140Z,99929.48
2022-12-29T09:57:36.019Z,99926.39
2022-12-29T10:00:22.484Z,99923.51
2022-12-29T10:02:59.750Z,99920.47
2022-12-29T10:05:31.454Z,99918.77
2022-12-29T10:08:20.886Z,99922.12
2022-12-29T10:11:05.016Z,99921.85
2022-12-29T10:13:57.839Z,99914.38
2022-12-29T10:16:59.522Z,99911.13
2022-12-29T10:19:54.727Z,99914.50
2022-12-29T10:22:37.346Z,99905.00
2022-12-29T10:25:16.124Z,99900.05
2022-12-29T10:27:44.585Z,99896.71
2022-12-29T10:30:14.651Z,99895.27
2022-12-29T10:32:56.825Z,99894.80
2022-12-29T10:35:27.967Z,99895.98
2022-12-29T10:38:13.895Z,99896.19
2022-12-29T10:40:50.158Z,99888.81
2022-12-29T10:43:21.135Z,99887.70
2022-12-29T10:45:49.777Z,99881.85
2022-12-29T10:48:28.565Z,99881.98
2022-12-29T10:51:02.658Z,99880.83
2022-12-29T10:53:46.187Z,99875.45
2022-12-29T10:56:32.558Z,99873.35
2022-12-29T10:59:09.082Z,99875.52
2022-12-29T11:01:47.829Z,99877.54
2022-12-29T11:04:41.634Z,99884.59
2022-12-29T11:07:15.634Z,99884.97
2022-12-29T11:09:44.992Z,99881.55
2022-12-29T11:12:26.907Z,99876.67
2022-12-29T11:15:02.514Z,99874.33
2022-12-29T11:17:30.506Z,99875.05
2022-12-29T11:19:58.202Z,99876.34
2022-12-29T11:22:29.648Z,99875.78
2022-12-29T11:25:11.331Z,99880.24
2022-12-29T11:27:39.229Z,99875.15
2022-12-29T11:30:25.265Z,99874.63
2022-12-29T11:32:54.762Z,99875.96
2022-12-29T11:35:41.812Z,99880.33
2022-12-29T11:38:22.951Z,99882.44
2022-12-29T11:40:51.211Z,99877.52
2022-12-29T11:43:35.916Z,99872.16
2022-12-29T11:46:05.317Z,99869.46
2022-12-29T11:48:39.520Z,99870.40
2022-12-29T11:51:08.693Z,99869.14
2022-12-29T11:53:46.229Z,99871.60
2022-12-29T11:56:23.493Z,99875.95
2022-12-29T11:58:51.877Z,99880.52
2022-12-29T12:01:27.620Z,99871.58
2022-12-29T12:04:19.735Z,99863.86
2022-12-29T12:06:58.228Z,99863.23
2022-12-29T12:09:34.410Z,99856.31
2022-12-29T12:12:04.517Z,99858.95
2022-12-29T12:14:57.495Z,99858.89
2022-12-29T12:17:50.247Z,99862.95
2022-12-29T12:20:40.497Z,99864.40
2022-12-29T12:23:14.739Z,99856.52
2022-12-29T12:26:11.799Z,99858.49
2022-12-29T12:29:04.922Z,99860.08
2022-12-29T12:32:44.369Z,99858.64
2022-12-29T12:35:19.718Z,99854.98
2022-12-29T12:38:08.161Z,99852.16
2022-12-29T12:41:21.861Z,99846.43
2022-12-29T12:43:57.998Z,99840.70
2022-12-29T12:46:31.841Z,99831.98
2022-12-29T12:49:34.848Z,99829.30
2022-12-29T12:52:17.758Z,99822.83
2022-12-29T12:55:11.140Z,99813.84
2022-12-29T12:57:56.195Z,99810.08
2022-12-29T13:00:24.372Z,99818.23
2022-12-29T13:03:18.357Z,99821.80
2022-12-29T13:06:24.622Z,99822.29
2022-12-29T13:09:24.679Z,99829.30
2022-12-29T13:12:26.129Z,99835.05
2022-12-29T13:15:10.113Z,99846.15
2022-12-29T13:17:48.966Z,99850.85
2022-12-29T13:20:43.702Z,99852.70
2022-12-29T13:23:26.768Z,99846.81
2022-12-29T13:26:16.098Z,99847.59
2022-12-29T13:28:46.782Z,99845.61
2022-12-29T13:31:31.255Z,99846.04
2022-12-29T13:34:44.372Z,99846.58
2022-12-29T13:37:19.596Z,99843.41
2022-12-29T13:39:53.259Z,99844.25
2022-12-29T13:42:22.356Z,99845.36
2022-12-29T13:44:56.691Z,99845.23
2022-12-29T13:47:39.428Z,99851.64
2022-12-29T13:50:23.388Z,99838.14
2022-12-29T13:53:06.374Z,99841.36
2022-12-29T13:55:48.432Z,99843.55
2022-12-29T13:58:26.535Z,99852.13
2022-12-29T14:01:15.934Z,99853.56
2022-12-29T14:03:50.075Z,99860.46
2022-12-29T14:06:20.971Z,99862.48
2022-12-29T14:08:50.632Z,99855.48
2022-12-29T14:11:21.395Z,99860.47
2022-12-29T14:13:49.868Z,99865.84
2022-12-29T14:16:36.390Z,99859.93
2022-12-29T14:19:10.337Z,99857.27
2022-12-29T14:21:38.861Z,99850.90
2022-12-29T14:24:40.996Z,99853.80
2022-12-29T14:27:08.599Z,99850.30
2022-12-29T14:29:39.372Z,99853.35
2022-12-29T14:32:22.266Z,99844.83
2022-12-29T14:34:52.755Z,99846.27
2022-12-29T14:37:23.416Z,99844.38
2022-12-29T14:40:23.930Z,99840.30
2022-12-29T14:42:54.589Z,99849.61
2022-12-29T14:45:22.142Z,99853.52
2022-12-29T14:47:52.349Z,99845.52
2022-12-29T14:50:26.582Z,99846.88
2022-12-29T14:53:03.685Z,99841.77
2022-12-29T14:55:49.228Z,99847.95
2022-12-29T14:58:19.601Z,99853.98
2022-12-29T15:00:47.904Z,99852.23
2022-12-29T15:03:32.950Z,99851.95
2022-12-29T15:06:12.558Z,99859.25
2022-12-29T15:09:12.898Z,99856.31
2022-12-29T15:11:40.444Z,99859.45
2022-12-29T15:14:29.209Z,99862.27
2022-12-29T15:16:56.939Z,99861.25
2022-12-29T15:19:26.803Z,99856.20
2022-12-29T15:21:56.612Z,99847.28
2022-12-29T15:24:25.004Z,99841.58
2022-12-29T15:26:55.451Z,99844.66
2022-12-29T15:29:39.346Z,99848.29
2022-12-29T15:32:15.894Z,99842.23
2022-12-29T15:34:49.782Z,99851.04
2022-12-29T15:37:26.167Z,99847.56
2022-12-29T15:39:55.717Z,99841.52
2022-12-29T15:42:23.226Z,99850.42
2022-12-29T15:44:57.967Z,99851.06
2022-12-29T15:47:31.647Z,99852.70
2022-12-29T15:50:13.855Z,99854.85
2022-12-29T15:52:41.645Z,99855.30
2022-12-29T15:55:21.573Z,99857.85
2022-12-29T15:57:49.347Z,99860.11
2022-12-29T16:00:32.095Z,99858.23
2022-12-29T16:03:02.913Z,99858.38
2022-12-29T16:05:36.533Z,99858.84
2022-12-29T16:08:21.500Z,99852.47
2022-12-29T16:10:50.080Z,99855.56
2022-12-29T16:13:45.458Z,99858.27
2022-12-29T16:16:21.273Z,99855.79
2022-12-29T16:18:57.291Z,99863.41
2022-12-29T16:21:29.539Z,99860.09
2022-12-29T16:24:02.856Z,99860.60
2022-12-29T16:26:30.623Z,99865.35
2022-12-29T16:29:01.676Z,99868.13
2022-12-29T16:32:01.108Z,99871.36
2022-12-29T16:34:42.959Z,99869.65
2022-12-29T16:37:29.364Z,99868.89
2022-12-29T16:39:57.396Z,99871.20
2022-12-29T16:42:42.444Z,99873.14
2022-12-29T16:45:19.614Z,99874.90
2022-12-29T16:47:49.977Z,99883.33
2022-12-29T16:50:28.253Z,99883.85
2022-12-29T16:52:56.426Z,99880.47
2022-12-29T16:55:24.870Z,99888.23
2022-12-29T16:57:57.282Z,99883.32
2022-12-29T17:00:28.407Z,99882.39
2022-12-29T17:03:00.009Z,99879.77
2022-12-29T17:05:27.942Z,99878.10
2022-12-29T17:08:01.842Z,99881.11
2022-12-29T17:10:53.223Z,99878.88
2022-12-29T17:13:21.012Z,99880.92
2022-12-29T17:15:48.651Z,99882.09
2022-12-29T17:18:16.296Z,99881.04
2022-12-29T17:20:43.907Z,99881.19
2022-12-29T17:23:21.163Z,99881.92
2022-12-29T17:25:55.049Z,99885.68
2022-12-29T17:28:27.195Z,99880.10
2022-12-29T17:30:59.431Z,99876.95
2022-12-29T17:33:31.150Z,99876.88
2022-12-29T17:35:58.807Z,99876.35
2022-12-29T17:38:34.728Z,99879.20
2022-12-29T17:41:02.427Z,99878.04
2022-12-29T17:43:36.453Z,99880.48
2022-12-29T17:46:07.009Z,99876.04
2022-12-29T17:48:35.417Z,99873.73
2022-12-29T17:51:03.213Z,99870.42
2022-12-29T17:53:31.464Z,99869.04
2022-12-29T17:55:59.192Z,99870.83
2022-12-29T17:58:29.215Z,99865.50
2022-12-29T18:00:59.637Z,99873.67
2022-12-29T18:03:33.882Z,99876.02
2022-12-29T18:06:02.532Z,99873.96
2022-12-29T18:08:30.515Z,99874.91
2022-12-29T18:10:58.908Z,99878.08
2022-12-29T18:13:40.332Z,99882.84
2022-12-29T18:16:13.177Z,99889.67
2022-12-29T18:18:41.240Z,99885.77
2022-12-29T18:21:15.762Z,99884.92
2022-12-29T18:23:43.482Z,99884.94
2022-12-29T18:26:28.245Z,99891.84
2022-12-29T18:28:57.753Z,99891.79
2022-12-29T18:31:30.777Z,99891.76
2022-12-29T18:34:01.633Z,99889.41
2022-12-29T18:36:29.345Z,99890.48
2022-12-29T18:38:57.093Z,99887.11
2022-12-29T18:41:29.647Z,99890.83
2022-12-29T18:43:59.387Z,99891.05
2022-12-29T18:46:27.116Z,99889.79
2022-12-29T18:48:54.923Z,99887.41
2022-12-29T18:51:24.758Z,99884.91
2022-12-29T18:53:54.251Z,99879.74
2022-12-29T18:56:24.415Z,99878.60
2022-12-29T18:58:53.565Z,99881.33
2022-12-29T19:01:24.699Z,99878.99
2022-12-29T19:03:52.599Z,99878.73
2022-12-29T19:06:21.280Z,99876.68
2022-12-29T19:08:49.141Z,99878.02
2022-12-29T19:11:17.870Z,99873.43
2022-12-29T19:13:45.678Z,99877.25
2022-12-29T19:16:22.276Z,99874.38
2022-12-29T19:19:07.858Z,99879.64
2022-12-29T19:21:37.729Z,99874.23
2022-12-29T19:24:05.896Z,99876.39
2022-12-29T19:26:36.601Z,99876.71
2022-12-29T19:29:07.966Z,99885.05
2022-12-29T19:31:37.814Z,99885.09
2022-12-29T19:34:05.547Z,99886.68
2022-12-29T19:36:33.326Z,99885.41
2022-12-29T19:39:00.998Z,99886.16
2022-12-29T19:41:28.739Z,99884.77
2022-12-29T19:43:56.338Z,99882.61
2022-12-29T19:46:25.427Z,99886.23
2022-12-29T19:48:58.540Z,99884.67
2022-12-29T19:51:27.211Z,99884.94
2022-12-29T19:53:55.559Z,99891.31
2022-12-29T19:56:23.396Z,99893.55
2022-12-29T19:58:51.532Z,99886.65
2022-12-29T20:01:22.440Z,99887.16
2022-12-29T20:03:51.111Z,99887.58
2022-12-29T20:06:19.706Z,99885.38
2022-12-29T20:08:48.194Z,99887.77
2022-12-29T20:11:18.101Z,99893.03
2022-12-29T20:13:46.847Z,99889.28
2022-12-29T20:16:17.941Z,99887.95
2022-12-29T20:18:47.048Z,99889.63
2022-12-29T20:21:23.796Z,99885.73
2022-12-29T20:23:54.099Z,99883.14
2022-12-29T20:26:25.409Z,99884.19
2022-12-29T20:28:54.636Z,99881.31
2022-12-29T20:31:32.011Z,99878.88
2022-12-29T20:34:00.183Z,99879.27
2022-12-29T20:36:30.893Z,99878.02
2022-12-29T20:39:00.305Z,99882.20
2022-12-29T20:41:28.108Z,99883.97
2022-12-29T20:43:55.815Z,99883.48
2022-12-29T20:46:33.741Z,99887.75
2022-12-29T20:49:04.811Z,99887.58
2022-12-29T20:51:55.298Z,99884.89
2022-12-29T20:54:21.039Z,99884.23
2022-12-29T20:56:49.325Z,99887.24
2022-12-29T20:59:27.500Z,99889.45
2022-12-29T21:01:57.676Z,99890.27
2022-12-29T21:04:25.997Z,99892.39
2022-12-29T21:06:54.055Z,99891.41
2022-12-29T21:09:21.717Z,99889.52
2022-12-29T21:11:49.615Z,99889.31
2022-12-29T21:14:17.374Z,99892.79
2022-12-29T21:16:45.119Z,99885.11
2022-12-29T21:19:13.734Z,99891.66
2022-12-29T21:21:41.381Z,99888.54
2022-12-29T21:24:09.017Z,99890.92
2022-12-29T21:26:36.749Z,99892.32
2022-12-29T21:29:04.636Z,99894.10
2022-12-29T21:31:35.499Z,99896.27
2022-12-29T21:34:05.034Z,99898.52
2022-12-29T21:36:33.178Z,99899.61
2022-12-29T21:39:03.267Z,99898.85
2022-12-29T21:41:32.085Z,99897.92
2022-12-29T21:44:18.815Z,99894.16
2022-12-29T21:46:49.348Z,99890.65
2022-12-29T21:49:17.091Z,99887.68
2022-12-29T21:51:50.411Z,99889.66
2022-12-29T21:54:45.737Z,99892.04
2022-12-29T21:57:36.013Z,99893.66
2022-12-29T22:00:28.307Z,99893.88
2022-12-29T22:03:22.639Z,99896.19
2022-12-29T22:06:10.994Z,99892.48
2022-12-29T22:08:58.479Z,99896.61
2022-12-29T22:11:44.888Z,99891.86
2022-12-29T22:14:12.538Z,99894.92
2022-12-29T22:16:40.154Z,99889.84
2022-12-29T22:19:08.761Z,99888.88
2022-12-29T22:21:36.472Z,99897.20
2022-12-29T22:24:04.372Z,99898.56
2022-12-29T22:26:32.134Z,99902.86
2022-12-29T22:29:00.067Z,99911.63
2022-12-29T22:31:30.239Z,99915.90
2022-12-29T22:34:01.150Z,99915.48
2022-12-29T22:36:30.042Z,99923.36
2022-12-29T22:38:57.729Z,99926.14
2022-12-29T22:41:25.563Z,99929.67
2022-12-29T22:43:53.257Z,99929.83
2022-12-29T22:46:21.238Z,99927.70
2022-12-29T22:48:49.035Z,99925.64
2022-12-29T22:51:16.670Z,99925.66
2022-12-29T22:53:45.553Z,99926.88
2022-12-29T22:56:14.448Z,99928.49
2022-12-29T22:58:43.923Z,99926.39
2022-12-29T23:01:13.724Z,99926.08
2022-12-29T23:03:42.472Z,99930.55
2022-12-29T23:06:16.480Z,99931.89
2022-12-29T23:08:44.884Z,99937.66
2022-12-29T23:11:13.331Z,99941.48
2022-12-29T23:13:44.469Z,99943.05
2022-12-29T23:16:13.990Z,99944.64
2022-12-29T23:18:42.068Z,99947.10
2022-12-29T23:21:10.423Z,99945.23
2022-12-29T23:23:53.351Z,99947.13
2022-12-29T23:26:25.780Z,99955.95
2022-12-29T23:28:59.917Z,99952.05
2022-12-29T23:31:29.258Z,99953.35
2022-12-29T23:33:58.091Z,99953.14
2022-12-29T23:36:26.379Z,99954.64
2022-12-29T23:38:54.260Z,99961.01
2022-12-29T23:41:22.023Z,99962.34
2022-12-29T23:43:50.123Z,99961.93
2022-12-29T23:46:24.297Z,99957.70
2022-12-29T23:48:52.592Z,99956.06
2022-12-29T23:51:20.328Z,99958.85
2022-12-29T23:53:48.711Z,99960.83
2022-12-29T23:56:19.342Z,99966.44
2022-12-29T23:58:47.803Z,99963.98
